sensor_id;sensor_type;location;lat;lon;timestamp;P1;durP1;ratioP1;P2;durP2;ratioP2
8791;SDS011;4432;50.890;4.744;2023-05-27T00:00:02;9.47;;;2.40;;
8791;SDS011;4432;50.890;4.744;2023-05-27T00:02:33;8.43;;;2.60;;
8791;SDS011;4432;50.890;4.744;2023-05-27T00:04:58;5.97;;;2.27;;
8791;SDS011;4432;50.890;4.744;2023-05-27T00:07:24;4.80;;;2.43;;
8791;SDS011;4432;50.890;4.744;2023-05-27T00:09:50;10.20;;;2.77;;
8791;SDS011;4432;50.890;4.744;2023-05-27T00:12:16;5.70;;;2.33;;
8791;SDS011;4432;50.890;4.744;2023-05-27T00:14:43;7.03;;;2.77;;
8791;SDS011;4432;50.890;4.744;2023-05-27T00:17:09;8.80;;;2.20;;
8791;SDS011;4432;50.890;4.744;2023-05-27T00:19:38;8.70;;;2.90;;
8791;SDS011;4432;50.890;4.744;2023-05-27T00:22:10;11.30;;;2.67;;
8791;SDS011;4432;50.890;4.744;2023-05-27T00:24:36;12.20;;;2.40;;
8791;SDS011;4432;50.890;4.744;2023-05-27T00:27:07;16.40;;;2.43;;
8791;SDS011;4432;50.890;4.744;2023-05-27T00:29:33;6.83;;;2.20;;
8791;SDS011;4432;50.890;4.744;2023-05-27T00:32:00;7.87;;;2.47;;
8791;SDS011;4432;50.890;4.744;2023-05-27T00:34:28;9.87;;;2.10;;
8791;SDS011;4432;50.890;4.744;2023-05-27T00:36:54;11.80;;;2.50;;
8791;SDS011;4432;50.890;4.744;2023-05-27T00:39:20;11.43;;;3.20;;
8791;SDS011;4432;50.890;4.744;2023-05-27T00:41:47;9.50;;;3.10;;
8791;SDS011;4432;50.890;4.744;2023-05-27T00:44:14;11.87;;;3.10;;
8791;SDS011;4432;50.890;4.744;2023-05-27T00:46:40;7.53;;;2.40;;
8791;SDS011;4432;50.890;4.744;2023-05-27T00:49:06;8.47;;;2.07;;
8791;SDS011;4432;50.890;4.744;2023-05-27T00:51:32;12.37;;;3.17;;
8791;SDS011;4432;50.890;4.744;2023-05-27T00:53:58;7.27;;;2.43;;
8791;SDS011;4432;50.890;4.744;2023-05-27T00:56:24;6.40;;;2.17;;
8791;SDS011;4432;50.890;4.744;2023-05-27T00:58:50;10.20;;;3.10;;
8791;SDS011;4432;50.890;4.744;2023-05-27T01:01:17;6.50;;;2.70;;
8791;SDS011;4432;50.890;4.744;2023-05-27T01:03:44;2.43;;;1.97;;
8791;SDS011;4432;50.890;4.744;2023-05-27T01:09:22;6.27;;;2.53;;
8791;SDS011;4432;50.890;4.744;2023-05-27T01:12:06;10.73;;;2.60;;
8791;SDS011;4432;50.890;4.744;2023-05-27T01:14:52;9.10;;;2.60;;
8791;SDS011;4432;50.890;4.744;2023-05-27T01:17:21;10.23;;;2.50;;
8791;SDS011;4432;50.890;4.744;2023-05-27T01:19:49;12.17;;;3.13;;
8791;SDS011;4432;50.890;4.744;2023-05-27T01:22:17;10.07;;;2.50;;
8791;SDS011;4432;50.890;4.744;2023-05-27T01:24:45;8.80;;;2.80;;
8791;SDS011;4432;50.890;4.744;2023-05-27T01:27:11;4.60;;;1.87;;
8791;SDS011;4432;50.890;4.744;2023-05-27T01:29:40;9.30;;;2.63;;
8791;SDS011;4432;50.890;4.744;2023-05-27T01:32:12;8.70;;;2.63;;
8791;SDS011;4432;50.890;4.744;2023-05-27T01:34:44;9.63;;;2.30;;
8791;SDS011;4432;50.890;4.744;2023-05-27T01:37:19;4.77;;;2.93;;
8791;SDS011;4432;50.890;4.744;2023-05-27T01:39:47;8.80;;;2.77;;
8791;SDS011;4432;50.890;4.744;2023-05-27T01:42:15;11.50;;;2.37;;
8791;SDS011;4432;50.890;4.744;2023-05-27T01:44:41;10.37;;;3.07;;
8791;SDS011;4432;50.890;4.744;2023-05-27T01:47:08;6.50;;;2.47;;
8791;SDS011;4432;50.890;4.744;2023-05-27T01:49:33;6.00;;;2.30;;
8791;SDS011;4432;50.890;4.744;2023-05-27T01:52:00;11.43;;;3.07;;
8791;SDS011;4432;50.890;4.744;2023-05-27T01:54:26;8.13;;;2.80;;
8791;SDS011;4432;50.890;4.744;2023-05-27T01:56:52;12.07;;;3.40;;
8791;SDS011;4432;50.890;4.744;2023-05-27T01:59:17;7.97;;;2.37;;
8791;SDS011;4432;50.890;4.744;2023-05-27T02:01:43;7.17;;;2.67;;
8791;SDS011;4432;50.890;4.744;2023-05-27T02:04:09;10.33;;;2.50;;
8791;SDS011;4432;50.890;4.744;2023-05-27T02:06:35;12.20;;;3.03;;
8791;SDS011;4432;50.890;4.744;2023-05-27T02:09:01;6.53;;;2.10;;
8791;SDS011;4432;50.890;4.744;2023-05-27T02:11:27;11.97;;;2.77;;
8791;SDS011;4432;50.890;4.744;2023-05-27T02:13:53;8.03;;;2.40;;
8791;SDS011;4432;50.890;4.744;2023-05-27T02:16:19;7.30;;;2.63;;
8791;SDS011;4432;50.890;4.744;2023-05-27T02:18:47;9.00;;;2.57;;
8791;SDS011;4432;50.890;4.744;2023-05-27T02:21:14;7.33;;;3.13;;
8791;SDS011;4432;50.890;4.744;2023-05-27T02:23:40;6.77;;;2.70;;
8791;SDS011;4432;50.890;4.744;2023-05-27T02:26:06;7.10;;;2.80;;
8791;SDS011;4432;50.890;4.744;2023-05-27T02:28:31;8.63;;;3.30;;
8791;SDS011;4432;50.890;4.744;2023-05-27T02:30:58;6.97;;;2.60;;
8791;SDS011;4432;50.890;4.744;2023-05-27T02:33:25;8.27;;;2.73;;
8791;SDS011;4432;50.890;4.744;2023-05-27T02:35:50;7.43;;;2.50;;
8791;SDS011;4432;50.890;4.744;2023-05-27T02:38:16;13.20;;;3.07;;
8791;SDS011;4432;50.890;4.744;2023-05-27T02:40:42;9.73;;;2.93;;
8791;SDS011;4432;50.890;4.744;2023-05-27T02:43:08;6.40;;;2.90;;
8791;SDS011;4432;50.890;4.744;2023-05-27T02:45:34;19.43;;;3.47;;
8791;SDS011;4432;50.890;4.744;2023-05-27T02:47:59;12.77;;;3.13;;
8791;SDS011;4432;50.890;4.744;2023-05-27T02:50:27;6.97;;;3.03;;
8791;SDS011;4432;50.890;4.744;2023-05-27T02:52:53;9.97;;;3.20;;
8791;SDS011;4432;50.890;4.744;2023-05-27T02:55:20;8.03;;;2.87;;
8791;SDS011;4432;50.890;4.744;2023-05-27T02:57:46;9.07;;;3.07;;
8791;SDS011;4432;50.890;4.744;2023-05-27T03:00:12;14.57;;;3.27;;
8791;SDS011;4432;50.890;4.744;2023-05-27T03:02:39;10.33;;;3.53;;
8791;SDS011;4432;50.890;4.744;2023-05-27T03:05:04;11.30;;;2.80;;
8791;SDS011;4432;50.890;4.744;2023-05-27T03:07:30;5.13;;;3.07;;
8791;SDS011;4432;50.890;4.744;2023-05-27T03:09:57;10.13;;;3.17;;
8791;SDS011;4432;50.890;4.744;2023-05-27T03:12:23;7.67;;;3.27;;
8791;SDS011;4432;50.890;4.744;2023-05-27T03:14:49;10.53;;;3.27;;
8791;SDS011;4432;50.890;4.744;2023-05-27T03:17:15;7.70;;;3.07;;
8791;SDS011;4432;50.890;4.744;2023-05-27T03:19:42;8.90;;;2.73;;
8791;SDS011;4432;50.890;4.744;2023-05-27T03:22:08;8.17;;;2.60;;
8791;SDS011;4432;50.890;4.744;2023-05-27T03:24:34;9.30;;;3.27;;
8791;SDS011;4432;50.890;4.744;2023-05-27T03:27:00;11.17;;;3.30;;
8791;SDS011;4432;50.890;4.744;2023-05-27T03:29:26;4.50;;;3.20;;
8791;SDS011;4432;50.890;4.744;2023-05-27T03:31:52;10.60;;;3.43;;
8791;SDS011;4432;50.890;4.744;2023-05-27T03:34:18;8.17;;;2.70;;
8791;SDS011;4432;50.890;4.744;2023-05-27T03:36:44;10.17;;;2.60;;
8791;SDS011;4432;50.890;4.744;2023-05-27T03:39:14;13.57;;;3.00;;
8791;SDS011;4432;50.890;4.744;2023-05-27T03:41:40;13.97;;;3.37;;
8791;SDS011;4432;50.890;4.744;2023-05-27T03:44:06;11.10;;;3.33;;
8791;SDS011;4432;50.890;4.744;2023-05-27T03:46:32;8.43;;;3.50;;
8791;SDS011;4432;50.890;4.744;2023-05-27T03:48:58;10.30;;;3.50;;
8791;SDS011;4432;50.890;4.744;2023-05-27T03:51:24;7.90;;;3.33;;
8791;SDS011;4432;50.890;4.744;2023-05-27T03:53:50;4.90;;;2.63;;
8791;SDS011;4432;50.890;4.744;2023-05-27T03:56:15;18.10;;;3.43;;
8791;SDS011;4432;50.890;4.744;2023-05-27T03:58:41;7.77;;;3.50;;
8791;SDS011;4432;50.890;4.744;2023-05-27T04:01:07;8.87;;;2.63;;
8791;SDS011;4432;50.890;4.744;2023-05-27T04:03:33;18.80;;;4.27;;
8791;SDS011;4432;50.890;4.744;2023-05-27T04:05:59;8.63;;;3.20;;
8791;SDS011;4432;50.890;4.744;2023-05-27T04:08:25;11.23;;;3.07;;
8791;SDS011;4432;50.890;4.744;2023-05-27T04:10:53;9.33;;;3.27;;
8791;SDS011;4432;50.890;4.744;2023-05-27T04:13:20;8.03;;;3.23;;
8791;SDS011;4432;50.890;4.744;2023-05-27T04:15:46;9.33;;;3.57;;
8791;SDS011;4432;50.890;4.744;2023-05-27T04:18:12;9.40;;;2.73;;
8791;SDS011;4432;50.890;4.744;2023-05-27T04:20:38;9.40;;;3.20;;
8791;SDS011;4432;50.890;4.744;2023-05-27T04:23:07;8.87;;;3.40;;
8791;SDS011;4432;50.890;4.744;2023-05-27T04:25:33;8.43;;;2.67;;
8791;SDS011;4432;50.890;4.744;2023-05-27T04:28:02;11.97;;;3.77;;
8791;SDS011;4432;50.890;4.744;2023-05-27T04:30:32;14.53;;;3.97;;
8791;SDS011;4432;50.890;4.744;2023-05-27T04:33:00;11.97;;;3.77;;
8791;SDS011;4432;50.890;4.744;2023-05-27T04:35:26;13.67;;;3.80;;
8791;SDS011;4432;50.890;4.744;2023-05-27T04:37:52;9.43;;;3.57;;
8791;SDS011;4432;50.890;4.744;2023-05-27T04:40:17;8.00;;;3.60;;
8791;SDS011;4432;50.890;4.744;2023-05-27T04:42:44;13.83;;;3.83;;
8791;SDS011;4432;50.890;4.744;2023-05-27T04:45:10;12.33;;;3.70;;
8791;SDS011;4432;50.890;4.744;2023-05-27T04:47:38;13.03;;;3.60;;
8791;SDS011;4432;50.890;4.744;2023-05-27T04:50:09;12.20;;;3.90;;
8791;SDS011;4432;50.890;4.744;2023-05-27T04:52:36;7.60;;;2.93;;
8791;SDS011;4432;50.890;4.744;2023-05-27T04:55:07;12.07;;;3.43;;
8791;SDS011;4432;50.890;4.744;2023-05-27T04:57:35;8.20;;;3.60;;
8791;SDS011;4432;50.890;4.744;2023-05-27T05:00:02;11.70;;;4.30;;
8791;SDS011;4432;50.890;4.744;2023-05-27T05:02:29;8.73;;;4.13;;
8791;SDS011;4432;50.890;4.744;2023-05-27T05:05:04;9.23;;;3.47;;
8791;SDS011;4432;50.890;4.744;2023-05-27T05:07:34;11.00;;;3.67;;
8791;SDS011;4432;50.890;4.744;2023-05-27T05:10:10;7.50;;;3.37;;
8791;SDS011;4432;50.890;4.744;2023-05-27T05:12:36;9.97;;;4.00;;
8791;SDS011;4432;50.890;4.744;2023-05-27T05:15:03;15.90;;;4.80;;
8791;SDS011;4432;50.890;4.744;2023-05-27T05:17:31;11.63;;;3.97;;
8791;SDS011;4432;50.890;4.744;2023-05-27T05:19:57;8.27;;;3.80;;
8791;SDS011;4432;50.890;4.744;2023-05-27T05:22:22;7.60;;;3.27;;
8791;SDS011;4432;50.890;4.744;2023-05-27T05:24:49;16.00;;;4.33;;
8791;SDS011;4432;50.890;4.744;2023-05-27T05:27:15;8.50;;;3.60;;
8791;SDS011;4432;50.890;4.744;2023-05-27T05:29:41;14.53;;;3.80;;
8791;SDS011;4432;50.890;4.744;2023-05-27T05:32:08;13.70;;;3.97;;
8791;SDS011;4432;50.890;4.744;2023-05-27T05:34:36;7.80;;;3.27;;
8791;SDS011;4432;50.890;4.744;2023-05-27T05:37:02;4.67;;;3.27;;
8791;SDS011;4432;50.890;4.744;2023-05-27T05:39:28;9.17;;;4.00;;
8791;SDS011;4432;50.890;4.744;2023-05-27T05:41:54;8.67;;;3.47;;
8791;SDS011;4432;50.890;4.744;2023-05-27T05:44:21;13.23;;;3.73;;
8791;SDS011;4432;50.890;4.744;2023-05-27T05:46:48;9.63;;;3.73;;
8791;SDS011;4432;50.890;4.744;2023-05-27T05:49:13;10.97;;;3.70;;
8791;SDS011;4432;50.890;4.744;2023-05-27T05:51:39;9.97;;;3.97;;
8791;SDS011;4432;50.890;4.744;2023-05-27T05:54:05;10.43;;;4.50;;
8791;SDS011;4432;50.890;4.744;2023-05-27T05:56:31;10.70;;;3.87;;
8791;SDS011;4432;50.890;4.744;2023-05-27T05:58:58;8.77;;;4.00;;
8791;SDS011;4432;50.890;4.744;2023-05-27T06:01:24;8.40;;;3.63;;
8791;SDS011;4432;50.890;4.744;2023-05-27T06:03:52;11.87;;;4.23;;
8791;SDS011;4432;50.890;4.744;2023-05-27T06:06:18;12.57;;;3.83;;
8791;SDS011;4432;50.890;4.744;2023-05-27T06:08:44;11.87;;;4.33;;
8791;SDS011;4432;50.890;4.744;2023-05-27T06:11:10;7.97;;;3.87;;
8791;SDS011;4432;50.890;4.744;2023-05-27T06:13:36;12.60;;;4.00;;
8791;SDS011;4432;50.890;4.744;2023-05-27T06:16:03;9.27;;;3.93;;
8791;SDS011;4432;50.890;4.744;2023-05-27T06:18:29;10.20;;;3.70;;
8791;SDS011;4432;50.890;4.744;2023-05-27T06:20:54;9.50;;;3.87;;
8791;SDS011;4432;50.890;4.744;2023-05-27T06:23:20;9.53;;;4.00;;
8791;SDS011;4432;50.890;4.744;2023-05-27T06:25:46;9.30;;;3.47;;
8791;SDS011;4432;50.890;4.744;2023-05-27T06:28:12;9.13;;;3.60;;
8791;SDS011;4432;50.890;4.744;2023-05-27T06:30:37;8.57;;;3.60;;
8791;SDS011;4432;50.890;4.744;2023-05-27T06:33:04;18.93;;;4.13;;
8791;SDS011;4432;50.890;4.744;2023-05-27T06:35:30;8.80;;;3.83;;
8791;SDS011;4432;50.890;4.744;2023-05-27T06:37:58;12.20;;;3.73;;
8791;SDS011;4432;50.890;4.744;2023-05-27T06:40:24;6.77;;;3.30;;
8791;SDS011;4432;50.890;4.744;2023-05-27T06:42:50;9.97;;;3.53;;
8791;SDS011;4432;50.890;4.744;2023-05-27T06:45:16;8.23;;;3.93;;
8791;SDS011;4432;50.890;4.744;2023-05-27T06:47:41;10.93;;;4.07;;
8791;SDS011;4432;50.890;4.744;2023-05-27T06:50:07;7.70;;;3.50;;
8791;SDS011;4432;50.890;4.744;2023-05-27T06:52:33;11.40;;;4.20;;
8791;SDS011;4432;50.890;4.744;2023-05-27T06:54:59;14.90;;;4.40;;
8791;SDS011;4432;50.890;4.744;2023-05-27T06:57:25;10.40;;;3.73;;
8791;SDS011;4432;50.890;4.744;2023-05-27T06:59:51;10.17;;;4.93;;
8791;SDS011;4432;50.890;4.744;2023-05-27T07:02:17;10.47;;;3.80;;
8791;SDS011;4432;50.890;4.744;2023-05-27T07:04:43;16.40;;;4.27;;
8791;SDS011;4432;50.890;4.744;2023-05-27T07:07:09;10.00;;;3.53;;
8791;SDS011;4432;50.890;4.744;2023-05-27T07:09:34;15.67;;;4.70;;
8791;SDS011;4432;50.890;4.744;2023-05-27T07:12:01;13.57;;;4.23;;
8791;SDS011;4432;50.890;4.744;2023-05-27T07:14:27;10.30;;;4.07;;
8791;SDS011;4432;50.890;4.744;2023-05-27T07:16:52;6.73;;;3.30;;
8791;SDS011;4432;50.890;4.744;2023-05-27T07:19:18;8.47;;;4.60;;
8791;SDS011;4432;50.890;4.744;2023-05-27T07:21:44;15.57;;;4.53;;
8791;SDS011;4432;50.890;4.744;2023-05-27T07:24:10;8.27;;;4.43;;
8791;SDS011;4432;50.890;4.744;2023-05-27T07:26:36;15.73;;;4.07;;
8791;SDS011;4432;50.890;4.744;2023-05-27T07:29:03;10.47;;;4.63;;
8791;SDS011;4432;50.890;4.744;2023-05-27T07:31:29;9.33;;;4.47;;
8791;SDS011;4432;50.890;4.744;2023-05-27T07:33:55;10.40;;;3.87;;
8791;SDS011;4432;50.890;4.744;2023-05-27T07:36:20;9.30;;;3.40;;
8791;SDS011;4432;50.890;4.744;2023-05-27T07:38:46;12.43;;;4.00;;
8791;SDS011;4432;50.890;4.744;2023-05-27T07:41:12;6.70;;;3.57;;
8791;SDS011;4432;50.890;4.744;2023-05-27T07:43:39;7.77;;;4.00;;
8791;SDS011;4432;50.890;4.744;2023-05-27T07:46:05;7.77;;;3.90;;
8791;SDS011;4432;50.890;4.744;2023-05-27T07:48:31;10.50;;;3.97;;
8791;SDS011;4432;50.890;4.744;2023-05-27T07:50:56;13.87;;;4.20;;
8791;SDS011;4432;50.890;4.744;2023-05-27T07:53:22;7.13;;;3.60;;
8791;SDS011;4432;50.890;4.744;2023-05-27T07:55:48;10.17;;;4.47;;
8791;SDS011;4432;50.890;4.744;2023-05-27T07:58:14;12.50;;;3.90;;
8791;SDS011;4432;50.890;4.744;2023-05-27T08:00:40;11.87;;;4.00;;
8791;SDS011;4432;50.890;4.744;2023-05-27T08:03:05;6.83;;;3.77;;
8791;SDS011;4432;50.890;4.744;2023-05-27T08:05:32;13.20;;;4.17;;
8791;SDS011;4432;50.890;4.744;2023-05-27T08:07:58;14.07;;;3.90;;
8791;SDS011;4432;50.890;4.744;2023-05-27T08:10:25;13.13;;;3.47;;
8791;SDS011;4432;50.890;4.744;2023-05-27T08:12:51;7.90;;;4.27;;
8791;SDS011;4432;50.890;4.744;2023-05-27T08:15:17;6.63;;;4.00;;
8791;SDS011;4432;50.890;4.744;2023-05-27T08:17:43;7.63;;;3.93;;
8791;SDS011;4432;50.890;4.744;2023-05-27T08:20:09;13.13;;;3.70;;
8791;SDS011;4432;50.890;4.744;2023-05-27T08:22:36;6.77;;;3.10;;
8791;SDS011;4432;50.890;4.744;2023-05-27T08:25:02;6.60;;;4.20;;
8791;SDS011;4432;50.890;4.744;2023-05-27T08:30:18;10.03;;;3.93;;
8791;SDS011;4432;50.890;4.744;2023-05-27T08:32:44;6.80;;;3.80;;
8791;SDS011;4432;50.890;4.744;2023-05-27T08:35:11;12.77;;;4.10;;
8791;SDS011;4432;50.890;4.744;2023-05-27T08:37:38;12.33;;;4.07;;
8791;SDS011;4432;50.890;4.744;2023-05-27T08:40:05;8.63;;;3.40;;
8791;SDS011;4432;50.890;4.744;2023-05-27T08:42:36;12.13;;;3.77;;
8791;SDS011;4432;50.890;4.744;2023-05-27T08:45:02;11.07;;;3.77;;
8791;SDS011;4432;50.890;4.744;2023-05-27T08:47:28;8.00;;;3.67;;
8791;SDS011;4432;50.890;4.744;2023-05-27T08:49:57;9.80;;;3.23;;
8791;SDS011;4432;50.890;4.744;2023-05-27T08:52:29;7.53;;;2.83;;
8791;SDS011;4432;50.890;4.744;2023-05-27T08:54:58;14.33;;;4.23;;
8791;SDS011;4432;50.890;4.744;2023-05-27T08:57:29;10.87;;;3.97;;
8791;SDS011;4432;50.890;4.744;2023-05-27T08:59:57;8.50;;;3.23;;
8791;SDS011;4432;50.890;4.744;2023-05-27T09:02:23;6.80;;;3.23;;
8791;SDS011;4432;50.890;4.744;2023-05-27T09:04:49;10.97;;;3.37;;
8791;SDS011;4432;50.890;4.744;2023-05-27T09:07:16;13.60;;;3.93;;
8791;SDS011;4432;50.890;4.744;2023-05-27T09:09:42;6.97;;;3.17;;
8791;SDS011;4432;50.890;4.744;2023-05-27T09:12:22;14.23;;;4.07;;
8791;SDS011;4432;50.890;4.744;2023-05-27T09:14:50;8.33;;;3.53;;
8791;SDS011;4432;50.890;4.744;2023-05-27T09:17:16;9.90;;;3.40;;
8791;SDS011;4432;50.890;4.744;2023-05-27T09:19:41;10.80;;;3.73;;
8791;SDS011;4432;50.890;4.744;2023-05-27T09:22:09;13.80;;;3.80;;
8791;SDS011;4432;50.890;4.744;2023-05-27T09:24:42;12.90;;;4.13;;
8791;SDS011;4432;50.890;4.744;2023-05-27T09:27:09;10.40;;;4.00;;
8791;SDS011;4432;50.890;4.744;2023-05-27T09:29:37;7.37;;;3.40;;
8791;SDS011;4432;50.890;4.744;2023-05-27T09:32:04;6.37;;;3.10;;
8791;SDS011;4432;50.890;4.744;2023-05-27T09:34:37;15.17;;;4.10;;
8791;SDS011;4432;50.890;4.744;2023-05-27T09:37:04;7.47;;;3.57;;
8791;SDS011;4432;50.890;4.744;2023-05-27T09:39:30;12.23;;;3.80;;
8791;SDS011;4432;50.890;4.744;2023-05-27T09:42:00;13.23;;;3.93;;
8791;SDS011;4432;50.890;4.744;2023-05-27T09:44:35;12.37;;;3.43;;
8791;SDS011;4432;50.890;4.744;2023-05-27T09:47:07;9.03;;;3.70;;
8791;SDS011;4432;50.890;4.744;2023-05-27T09:49:39;10.73;;;3.63;;
8791;SDS011;4432;50.890;4.744;2023-05-27T09:52:06;8.90;;;4.07;;
8791;SDS011;4432;50.890;4.744;2023-05-27T09:54:35;10.97;;;3.80;;
8791;SDS011;4432;50.890;4.744;2023-05-27T09:57:05;11.10;;;3.50;;
8791;SDS011;4432;50.890;4.744;2023-05-27T09:59:33;9.63;;;4.30;;
8791;SDS011;4432;50.890;4.744;2023-05-27T10:02:00;8.73;;;3.60;;
8791;SDS011;4432;50.890;4.744;2023-05-27T10:04:28;12.77;;;3.97;;
8791;SDS011;4432;50.890;4.744;2023-05-27T10:06:55;7.33;;;3.40;;
8791;SDS011;4432;50.890;4.744;2023-05-27T10:09:21;10.63;;;3.43;;
8791;SDS011;4432;50.890;4.744;2023-05-27T10:11:47;8.73;;;3.17;;
8791;SDS011;4432;50.890;4.744;2023-05-27T10:14:15;5.00;;;3.03;;
8791;SDS011;4432;50.890;4.744;2023-05-27T10:16:50;11.03;;;3.30;;
8791;SDS011;4432;50.890;4.744;2023-05-27T10:19:18;8.60;;;3.53;;
8791;SDS011;4432;50.890;4.744;2023-05-27T10:21:45;8.63;;;3.50;;
8791;SDS011;4432;50.890;4.744;2023-05-27T10:24:11;8.13;;;3.40;;
8791;SDS011;4432;50.890;4.744;2023-05-27T10:26:41;6.10;;;3.23;;
8791;SDS011;4432;50.890;4.744;2023-05-27T10:29:11;7.57;;;3.40;;
8791;SDS011;4432;50.890;4.744;2023-05-27T10:31:50;8.13;;;3.23;;
8791;SDS011;4432;50.890;4.744;2023-05-27T10:34:16;13.77;;;3.20;;
8791;SDS011;4432;50.890;4.744;2023-05-27T10:36:44;10.07;;;2.80;;
8791;SDS011;4432;50.890;4.744;2023-05-27T10:39:17;7.07;;;3.20;;
8791;SDS011;4432;50.890;4.744;2023-05-27T10:41:53;7.73;;;2.70;;
8791;SDS011;4432;50.890;4.744;2023-05-27T10:44:54;8.40;;;2.70;;
8791;SDS011;4432;50.890;4.744;2023-05-27T10:47:13;6.90;;;3.13;;
8791;SDS011;4432;50.890;4.744;2023-05-27T10:49:39;10.73;;;3.17;;
8791;SDS011;4432;50.890;4.744;2023-05-27T10:52:16;9.10;;;2.90;;
8791;SDS011;4432;50.890;4.744;2023-05-27T10:54:43;7.77;;;3.33;;
8791;SDS011;4432;50.890;4.744;2023-05-27T10:57:14;11.80;;;2.90;;
8791;SDS011;4432;50.890;4.744;2023-05-27T10:59:52;9.67;;;3.07;;
8791;SDS011;4432;50.890;4.744;2023-05-27T11:02:20;7.77;;;3.40;;
8791;SDS011;4432;50.890;4.744;2023-05-27T11:04:46;5.90;;;2.60;;
8791;SDS011;4432;50.890;4.744;2023-05-27T11:07:17;5.20;;;2.60;;
8791;SDS011;4432;50.890;4.744;2023-05-27T11:09:44;8.87;;;2.80;;
8791;SDS011;4432;50.890;4.744;2023-05-27T11:12:14;9.63;;;2.47;;
8791;SDS011;4432;50.890;4.744;2023-05-27T11:14:42;8.73;;;2.70;;
8791;SDS011;4432;50.890;4.744;2023-05-27T11:17:12;7.73;;;3.13;;
8791;SDS011;4432;50.890;4.744;2023-05-27T11:19:38;6.10;;;2.37;;
8791;SDS011;4432;50.890;4.744;2023-05-27T11:22:08;10.07;;;3.30;;
8791;SDS011;4432;50.890;4.744;2023-05-27T11:24:37;12.23;;;3.30;;
8791;SDS011;4432;50.890;4.744;2023-05-27T11:27:10;4.73;;;2.60;;
8791;SDS011;4432;50.890;4.744;2023-05-27T11:29:39;5.27;;;2.27;;
8791;SDS011;4432;50.890;4.744;2023-05-27T11:32:15;6.43;;;2.83;;
8791;SDS011;4432;50.890;4.744;2023-05-27T11:34:42;9.43;;;2.57;;
8791;SDS011;4432;50.890;4.744;2023-05-27T11:37:10;4.70;;;2.27;;
8791;SDS011;4432;50.890;4.744;2023-05-27T11:39:36;5.30;;;2.20;;
8791;SDS011;4432;50.890;4.744;2023-05-27T11:42:05;8.17;;;2.80;;
8791;SDS011;4432;50.890;4.744;2023-05-27T11:44:33;6.70;;;3.10;;
8791;SDS011;4432;50.890;4.744;2023-05-27T11:46:59;5.17;;;2.73;;
8791;SDS011;4432;50.890;4.744;2023-05-27T11:49:25;10.30;;;2.67;;
8791;SDS011;4432;50.890;4.744;2023-05-27T11:51:54;4.23;;;2.20;;
8791;SDS011;4432;50.890;4.744;2023-05-27T11:56:58;11.93;;;3.17;;
8791;SDS011;4432;50.890;4.744;2023-05-27T11:59:24;4.97;;;2.50;;
8791;SDS011;4432;50.890;4.744;2023-05-27T12:01:52;7.17;;;2.50;;
8791;SDS011;4432;50.890;4.744;2023-05-27T12:04:20;7.63;;;2.77;;
8791;SDS011;4432;50.890;4.744;2023-05-27T12:06:46;7.23;;;2.90;;
8791;SDS011;4432;50.890;4.744;2023-05-27T12:09:13;6.27;;;2.50;;
8791;SDS011;4432;50.890;4.744;2023-05-27T12:11:40;9.53;;;2.50;;
8791;SDS011;4432;50.890;4.744;2023-05-27T12:14:06;7.43;;;2.87;;
8791;SDS011;4432;50.890;4.744;2023-05-27T12:16:31;4.50;;;2.33;;
8791;SDS011;4432;50.890;4.744;2023-05-27T12:18:57;8.37;;;2.30;;
8791;SDS011;4432;50.890;4.744;2023-05-27T12:21:24;3.90;;;2.53;;
8791;SDS011;4432;50.890;4.744;2023-05-27T12:23:50;6.53;;;2.30;;
8791;SDS011;4432;50.890;4.744;2023-05-27T12:26:16;3.37;;;2.27;;
8791;SDS011;4432;50.890;4.744;2023-05-27T12:28:43;6.67;;;2.00;;
8791;SDS011;4432;50.890;4.744;2023-05-27T12:31:09;7.37;;;2.30;;
8791;SDS011;4432;50.890;4.744;2023-05-27T12:33:34;5.10;;;2.57;;
8791;SDS011;4432;50.890;4.744;2023-05-27T12:36:01;7.90;;;3.37;;
8791;SDS011;4432;50.890;4.744;2023-05-27T12:38:27;9.40;;;2.73;;
8791;SDS011;4432;50.890;4.744;2023-05-27T12:40:53;8.00;;;2.30;;
8791;SDS011;4432;50.890;4.744;2023-05-27T12:43:20;5.03;;;2.53;;
8791;SDS011;4432;50.890;4.744;2023-05-27T12:45:46;9.40;;;2.67;;
8791;SDS011;4432;50.890;4.744;2023-05-27T12:48:12;4.37;;;2.50;;
8791;SDS011;4432;50.890;4.744;2023-05-27T12:50:39;6.70;;;3.13;;
8791;SDS011;4432;50.890;4.744;2023-05-27T12:53:05;10.10;;;2.80;;
8791;SDS011;4432;50.890;4.744;2023-05-27T12:55:32;5.80;;;2.60;;
8791;SDS011;4432;50.890;4.744;2023-05-27T12:57:58;5.43;;;2.70;;
8791;SDS011;4432;50.890;4.744;2023-05-27T13:00:24;5.67;;;2.63;;
8791;SDS011;4432;50.890;4.744;2023-05-27T13:02:50;7.63;;;2.60;;
8791;SDS011;4432;50.890;4.744;2023-05-27T13:05:16;5.00;;;2.73;;
8791;SDS011;4432;50.890;4.744;2023-05-27T13:08:03;10.60;;;2.87;;
8791;SDS011;4432;50.890;4.744;2023-05-27T13:10:30;6.40;;;2.67;;
8791;SDS011;4432;50.890;4.744;2023-05-27T13:12:56;7.43;;;2.73;;
8791;SDS011;4432;50.890;4.744;2023-05-27T13:15:24;5.00;;;2.37;;
8791;SDS011;4432;50.890;4.744;2023-05-27T13:17:50;8.43;;;2.87;;
8791;SDS011;4432;50.890;4.744;2023-05-27T13:20:17;7.10;;;2.40;;
8791;SDS011;4432;50.890;4.744;2023-05-27T13:22:44;6.40;;;2.43;;
8791;SDS011;4432;50.890;4.744;2023-05-27T13:25:11;4.57;;;2.00;;
8791;SDS011;4432;50.890;4.744;2023-05-27T13:27:38;9.90;;;2.47;;
8791;SDS011;4432;50.890;4.744;2023-05-27T13:30:09;7.33;;;2.63;;
8791;SDS011;4432;50.890;4.744;2023-05-27T13:32:37;6.30;;;2.60;;
8791;SDS011;4432;50.890;4.744;2023-05-27T13:35:03;6.13;;;2.20;;
8791;SDS011;4432;50.890;4.744;2023-05-27T13:37:29;5.90;;;2.50;;
8791;SDS011;4432;50.890;4.744;2023-05-27T13:39:55;5.90;;;2.60;;
8791;SDS011;4432;50.890;4.744;2023-05-27T13:42:22;4.63;;;2.50;;
8791;SDS011;4432;50.890;4.744;2023-05-27T13:44:48;6.17;;;2.77;;
8791;SDS011;4432;50.890;4.744;2023-05-27T13:47:14;10.90;;;2.67;;
8791;SDS011;4432;50.890;4.744;2023-05-27T13:49:39;5.47;;;2.37;;
8791;SDS011;4432;50.890;4.744;2023-05-27T13:52:05;10.43;;;2.80;;
8791;SDS011;4432;50.890;4.744;2023-05-27T13:54:31;5.87;;;1.70;;
8791;SDS011;4432;50.890;4.744;2023-05-27T13:56:57;5.60;;;2.07;;
8791;SDS011;4432;50.890;4.744;2023-05-27T13:59:23;5.60;;;2.00;;
8791;SDS011;4432;50.890;4.744;2023-05-27T14:01:48;3.27;;;2.10;;
8791;SDS011;4432;50.890;4.744;2023-05-27T14:04:15;7.23;;;2.60;;
8791;SDS011;4432;50.890;4.744;2023-05-27T14:06:41;8.27;;;2.70;;
8791;SDS011;4432;50.890;4.744;2023-05-27T14:09:07;3.83;;;2.30;;
8791;SDS011;4432;50.890;4.744;2023-05-27T14:11:33;5.57;;;2.43;;
8791;SDS011;4432;50.890;4.744;2023-05-27T14:13:58;5.17;;;2.40;;
8791;SDS011;4432;50.890;4.744;2023-05-27T14:16:24;6.83;;;2.53;;
8791;SDS011;4432;50.890;4.744;2023-05-27T14:18:50;5.87;;;2.47;;
8791;SDS011;4432;50.890;4.744;2023-05-27T14:21:16;5.50;;;2.23;;
8791;SDS011;4432;50.890;4.744;2023-05-27T14:23:43;9.37;;;2.70;;
8791;SDS011;4432;50.890;4.744;2023-05-27T14:26:09;4.67;;;2.27;;
8791;SDS011;4432;50.890;4.744;2023-05-27T14:28:35;5.47;;;2.60;;
8791;SDS011;4432;50.890;4.744;2023-05-27T14:31:01;5.00;;;2.30;;
8791;SDS011;4432;50.890;4.744;2023-05-27T14:33:27;3.67;;;1.90;;
8791;SDS011;4432;50.890;4.744;2023-05-27T14:35:52;8.40;;;2.60;;
8791;SDS011;4432;50.890;4.744;2023-05-27T14:38:19;5.27;;;2.43;;
8791;SDS011;4432;50.890;4.744;2023-05-27T14:40:45;5.93;;;2.43;;
8791;SDS011;4432;50.890;4.744;2023-05-27T14:43:11;3.77;;;2.13;;
8791;SDS011;4432;50.890;4.744;2023-05-27T14:45:37;4.93;;;2.23;;
8791;SDS011;4432;50.890;4.744;2023-05-27T14:48:05;6.00;;;2.03;;
8791;SDS011;4432;50.890;4.744;2023-05-27T14:50:31;7.17;;;2.40;;
8791;SDS011;4432;50.890;4.744;2023-05-27T14:52:57;7.13;;;2.70;;
8791;SDS011;4432;50.890;4.744;2023-05-27T14:55:23;5.87;;;2.37;;
8791;SDS011;4432;50.890;4.744;2023-05-27T14:57:49;4.43;;;2.33;;
8791;SDS011;4432;50.890;4.744;2023-05-27T15:00:15;6.97;;;2.53;;
8791;SDS011;4432;50.890;4.744;2023-05-27T15:02:41;6.00;;;2.43;;
8791;SDS011;4432;50.890;4.744;2023-05-27T15:05:07;6.40;;;2.50;;
8791;SDS011;4432;50.890;4.744;2023-05-27T15:07:34;8.07;;;2.70;;
8791;SDS011;4432;50.890;4.744;2023-05-27T15:10:04;4.53;;;2.40;;
8791;SDS011;4432;50.890;4.744;2023-05-27T15:12:40;7.03;;;2.27;;
8791;SDS011;4432;50.890;4.744;2023-05-27T15:15:09;8.07;;;2.43;;
8791;SDS011;4432;50.890;4.744;2023-05-27T15:17:37;10.63;;;2.43;;